Terminal Aerodrome Forecast
Issued by NWS Springfield, MO

Home | Current Version | Previous Version | Text Only | Print | Product List | Glossary On
Versions: 1 2 3 4 5 6 7 8 9 10 11 12 13 14 15 16 17 18 19 20 21 22 23 24 25
308
FTUS43 KSGF 222321
TAFSGF
TAF
KSGF 222321Z 2300/2324 16010KT P6SM SKC
     FM230700 15006KT 4SM BR SCT250
      TEMPO 2312/2314 2SM BR BKN007
     FM231600 16015G22KT P6SM SCT250=

USA.gov is the U.S. government's official web portal to all federal, state and local government web resources and services.